createdAt,value
2023-01-04T00:00:54.179Z,55.16
2023-01-04T00:03:20.752Z,54.92
2023-01-04T00:05:47.343Z,55.02
2023-01-04T00:08:14.073Z,55.15
2023-01-04T00:10:40.447Z,54.88
2023-01-04T00:13:06.737Z,55.09
2023-01-04T00:15:33.333Z,55.07
2023-01-04T00:18:00.478Z,55.20
2023-01-04T00:20:27.218Z,55.18
2023-01-04T00:22:53.637Z,55.06
2023-01-04T00:25:20.070Z,55.01
2023-01-04T00:27:46.395Z,54.82
2023-01-04T00:30:12.720Z,54.69
2023-01-04T00:32:39.281Z,55.04
2023-01-04T00:35:05.724Z,54.74
2023-01-04T00:37:32.076Z,54.83
2023-01-04T00:39:58.660Z,55.14
2023-01-04T00:42:25.072Z,55.10
2023-01-04T00:44:51.660Z,54.65
2023-01-04T00:47:18.098Z,54.75
2023-01-04T00:49:44.888Z,54.96
2023-01-04T00:52:11.298Z,54.62
2023-01-04T00:54:37.832Z,54.74
2023-01-04T00:57:04.434Z,54.52
2023-01-04T00:59:31.222Z,54.74
2023-01-04T01:01:57.852Z,54.79
2023-01-04T01:04:24.828Z,54.83
2023-01-04T01:06:51.265Z,54.68
2023-01-04T01:09:17.706Z,54.90
2023-01-04T01:11:44.077Z,54.74
2023-01-04T01:14:10.533Z,54.57
2023-01-04T01:19:23.531Z,54.60
2023-01-04T01:21:50.077Z,54.42
2023-01-04T01:24:16.626Z,54.63
2023-01-04T01:26:43.159Z,54.80
2023-01-04T01:29:09.680Z,54.50
2023-01-04T01:31:36.630Z,54.71
2023-01-04T01:34:03.069Z,54.75
2023-01-04T01:36:29.708Z,54.44
2023-01-04T01:38:56.165Z,54.62
2023-01-04T01:41:22.844Z,54.46
2023-01-04T01:43:49.303Z,54.35
2023-01-04T01:46:15.809Z,54.29
2023-01-04T01:48:42.224Z,54.35
2023-01-04T01:51:08.795Z,54.58
2023-01-04T01:53:35.736Z,54.38
2023-01-04T01:56:02.078Z,54.38
2023-01-04T01:58:28.402Z,54.29
2023-01-04T02:00:54.891Z,54.59
2023-01-04T02:03:21.681Z,54.49
2023-01-04T02:05:48.338Z,54.59
2023-01-04T02:08:15.379Z,54.42
2023-01-04T02:10:42.010Z,54.60
2023-01-04T02:13:08.680Z,54.55
2023-01-04T02:15:35.611Z,54.33
2023-01-04T02:18:02.072Z,54.33
2023-01-04T02:20:28.880Z,54.43
2023-01-04T02:22:55.267Z,54.42
2023-01-04T02:25:21.737Z,54.22
2023-01-04T02:27:48.144Z,54.55
2023-01-04T02:30:14.937Z,54.06
2023-01-04T02:32:41.420Z,54.42
2023-01-04T02:35:08.100Z,54.54
2023-01-04T02:37:34.664Z,54.41
2023-01-04T02:40:01.086Z,54.31
2023-01-04T02:42:27.927Z,54.46
2023-01-04T02:44:54.309Z,54.31
2023-01-04T02:47:21.540Z,54.40
2023-01-04T02:49:48.136Z,54.46
2023-01-04T02:52:14.506Z,54.22
2023-01-04T02:54:41.369Z,54.25
2023-01-04T02:57:07.956Z,54.19
2023-01-04T02:59:35.530Z,54.27
2023-01-04T03:02:02.242Z,54.34
2023-01-04T03:04:29.367Z,54.38
2023-01-04T03:06:55.770Z,54.27
2023-01-04T03:09:22.230Z,54.32
2023-01-04T03:11:48.660Z,54.45
2023-01-04T03:14:32.342Z,54.48
2023-01-04T03:17:00.660Z,54.30
2023-01-04T03:19:27.428Z,54.20
2023-01-04T03:21:54.647Z,54.10
2023-01-04T03:24:21.034Z,54.09
2023-01-04T03:26:48.066Z,54.02
2023-01-04T03:29:14.485Z,54.14
2023-01-04T03:31:40.985Z,54.14
2023-01-04T03:34:08.093Z,54.27
2023-01-04T03:36:34.866Z,54.13
2023-01-04T03:39:01.252Z,54.23
2023-01-04T03:41:28.037Z,54.07
2023-01-04T03:43:54.468Z,54.40
2023-01-04T03:46:21.265Z,54.12
2023-01-04T03:48:47.929Z,54.34
2023-01-04T03:51:14.213Z,54.29
2023-01-04T03:53:40.597Z,53.97
2023-01-04T03:56:07.037Z,54.32
2023-01-04T03:58:34.136Z,54.31
2023-01-04T04:01:00.876Z,54.12
2023-01-04T04:03:27.402Z,54.01
2023-01-04T04:05:54.363Z,54.08
2023-01-04T04:08:20.918Z,54.13
2023-01-04T04:10:47.262Z,54.23
2023-01-04T04:13:13.836Z,54.32
2023-01-04T04:15:40.159Z,54.35
2023-01-04T04:18:07.768Z,54.42
2023-01-04T04:20:34.119Z,54.16
2023-01-04T04:23:00.669Z,54.16
2023-01-04T04:25:28.215Z,54.35
2023-01-04T04:27:54.750Z,54.25
2023-01-04T04:30:22.323Z,54.10
2023-01-04T04:32:48.983Z,54.44
2023-01-04T04:35:15.825Z,54.00
2023-01-04T04:37:42.324Z,54.19
2023-01-04T04:40:08.891Z,54.25
2023-01-04T04:42:35.686Z,54.38
2023-01-04T04:45:02.062Z,54.41
2023-01-04T04:47:29.188Z,54.15
2023-01-04T04:49:55.884Z,54.10
2023-01-04T04:52:22.607Z,54.42
2023-01-04T04:54:49.584Z,54.38
2023-01-04T04:57:16.161Z,54.09
2023-01-04T04:59:42.588Z,54.40
2023-01-04T05:02:09.097Z,54.04
2023-01-04T05:04:35.671Z,54.32
2023-01-04T05:07:03.351Z,54.06
2023-01-04T05:09:32.030Z,54.11
2023-01-04T05:11:58.995Z,54.06
2023-01-04T05:14:25.782Z,54.34
2023-01-04T05:16:52.301Z,53.97
2023-01-04T05:19:19.374Z,54.31
2023-01-04T05:21:45.928Z,54.30
2023-01-04T05:24:12.339Z,54.12
2023-01-04T05:26:39.109Z,54.08
2023-01-04T05:29:05.931Z,54.05
2023-01-04T05:31:32.309Z,54.08
2023-01-04T05:33:59.271Z,54.34
2023-01-04T05:36:26.165Z,54.08
2023-01-04T05:38:52.756Z,54.36
2023-01-04T05:41:19.709Z,54.25
2023-01-04T05:43:46.115Z,54.34
2023-01-04T05:46:12.851Z,54.42
2023-01-04T05:48:39.657Z,54.34
2023-01-04T05:51:07.004Z,54.05
2023-01-04T05:53:33.428Z,54.31
2023-01-04T05:55:59.909Z,54.34
2023-01-04T05:58:26.435Z,54.35
2023-01-04T06:00:53.172Z,54.07
2023-01-04T06:03:19.977Z,54.02
2023-01-04T06:05:46.698Z,54.25
2023-01-04T06:08:13.581Z,54.18
2023-01-04T06:10:40.334Z,54.28
2023-01-04T06:13:07.115Z,54.32
2023-01-04T06:15:36.581Z,54.24
2023-01-04T06:18:11.420Z,54.04
2023-01-04T06:20:40.240Z,54.31
2023-01-04T06:23:07.174Z,53.99
2023-01-04T06:25:33.715Z,54.41
2023-01-04T06:28:00.217Z,54.49
2023-01-04T06:30:27.348Z,54.28
2023-01-04T06:32:54.087Z,54.09
2023-01-04T06:35:20.929Z,54.40
2023-01-04T06:37:47.412Z,54.21
2023-01-04T06:40:14.379Z,54.43
2023-01-04T06:42:41.018Z,54.40
2023-01-04T06:45:07.684Z,54.39
2023-01-04T06:47:34.343Z,54.21
2023-01-04T06:50:00.634Z,54.13
2023-01-04T06:52:27.026Z,54.22
2023-01-04T06:54:53.341Z,54.40
2023-01-04T06:57:20.282Z,54.07
2023-01-04T06:59:47.155Z,54.35
2023-01-04T07:02:13.596Z,54.35
2023-01-04T07:04:40.189Z,54.33
2023-01-04T07:07:06.644Z,54.39
2023-01-04T07:09:33.124Z,54.35
2023-01-04T07:11:59.745Z,54.18
2023-01-04T07:14:26.065Z,54.08
2023-01-04T07:16:52.518Z,54.08
2023-01-04T07:19:18.919Z,54.22
2023-01-04T07:21:45.482Z,54.36
2023-01-04T07:24:12.249Z,54.47
2023-01-04T07:26:38.937Z,54.41
2023-01-04T07:29:05.827Z,54.70
2023-01-04T07:31:32.237Z,54.16
2023-01-04T07:33:59.100Z,53.96
2023-01-04T07:36:25.505Z,53.56
2023-01-04T07:38:52.130Z,53.69
2023-01-04T07:41:18.861Z,53.69
2023-01-04T07:43:45.289Z,53.63
2023-01-04T07:46:12.065Z,53.19
2023-01-04T07:48:38.635Z,53.41
2023-01-04T07:51:04.945Z,53.78
2023-01-04T07:53:31.255Z,53.66
2023-01-04T07:55:57.601Z,53.98
2023-01-04T07:58:23.864Z,53.82
2023-01-04T08:00:50.193Z,53.68
2023-01-04T08:03:16.939Z,54.30
2023-01-04T08:05:43.276Z,53.79
2023-01-04T08:08:09.573Z,54.06
2023-01-04T08:10:35.922Z,53.73
2023-01-04T08:13:02.414Z,53.77
2023-01-04T08:15:29.293Z,54.16
2023-01-04T08:17:56.063Z,53.79
2023-01-04T08:20:22.728Z,53.78
2023-01-04T08:22:49.073Z,53.99
2023-01-04T08:25:15.385Z,53.86
2023-01-04T08:27:42.056Z,54.02
2023-01-04T08:30:08.872Z,53.86
2023-01-04T08:32:35.283Z,53.80
2023-01-04T08:35:01.796Z,54.31
2023-01-04T08:37:28.365Z,54.06
2023-01-04T08:39:55.217Z,54.12
2023-01-04T08:42:28.518Z,53.95
2023-01-04T08:44:59.894Z,54.11
2023-01-04T08:47:27.128Z,54.40
2023-01-04T08:49:53.502Z,54.08
2023-01-04T08:52:20.205Z,54.08
2023-01-04T08:54:47.200Z,54.01
2023-01-04T08:57:13.893Z,54.35
2023-01-04T08:59:40.289Z,54.05
2023-01-04T09:02:06.878Z,54.18
2023-01-04T09:04:33.559Z,54.09
2023-01-04T09:06:59.859Z,54.25
2023-01-04T09:09:26.631Z,54.35
2023-01-04T09:11:53.037Z,54.18
2023-01-04T09:14:19.615Z,54.08
2023-01-04T09:16:45.990Z,54.11
2023-01-04T09:19:18.064Z,54.41
2023-01-04T09:21:47.931Z,54.24
2023-01-04T09:24:14.442Z,54.42
2023-01-04T09:26:40.743Z,54.21
2023-01-04T09:29:07.131Z,54.32
2023-01-04T09:31:33.933Z,54.49
2023-01-04T09:34:17.681Z,54.40
2023-01-04T09:36:44.522Z,54.57
2023-01-04T09:39:18.822Z,54.43
2023-01-04T09:41:48.158Z,54.55
2023-01-04T09:44:14.513Z,54.61
2023-01-04T09:46:41.384Z,54.34
2023-01-04T09:49:07.826Z,54.60
2023-01-04T09:51:34.238Z,54.66
2023-01-04T09:54:00.675Z,54.51
2023-01-04T09:56:27.494Z,54.39
2023-01-04T09:58:53.896Z,54.52
2023-01-04T10:01:21.024Z,54.64
2023-01-04T10:03:47.808Z,54.82
2023-01-04T10:06:14.249Z,55.08
2023-01-04T10:08:40.735Z,54.86
2023-01-04T10:11:07.970Z,54.60
2023-01-04T10:13:34.601Z,54.81
2023-01-04T10:16:01.848Z,54.99
2023-01-04T10:21:30.019Z,54.62
2023-01-04T10:23:59.970Z,54.75
2023-01-04T10:26:26.410Z,54.90
2023-01-04T10:28:53.281Z,54.88
2023-01-04T10:31:39.984Z,54.96
2023-01-04T10:34:06.733Z,55.14
2023-01-04T10:36:34.017Z,55.11
2023-01-04T10:39:00.773Z,55.10
2023-01-04T10:41:27.415Z,55.16
2023-01-04T10:44:11.917Z,54.92
2023-01-04T10:46:40.731Z,55.04
2023-01-04T10:49:07.916Z,55.32
2023-01-04T10:51:34.267Z,55.04
2023-01-04T10:54:00.783Z,54.95
2023-01-04T10:56:27.656Z,55.11
2023-01-04T10:58:55.489Z,55.14
2023-01-04T11:01:22.209Z,55.08
2023-01-04T11:03:48.672Z,55.36
2023-01-04T11:06:15.798Z,55.14
2023-01-04T11:08:42.468Z,55.44
2023-01-04T11:11:09.208Z,55.45
2023-01-04T11:13:36.005Z,55.63
2023-01-04T11:16:02.667Z,55.35
2023-01-04T11:18:29.520Z,55.44
2023-01-04T11:20:56.254Z,55.44
2023-01-04T11:23:22.954Z,55.52
2023-01-04T11:25:55.475Z,55.55
2023-01-04T11:28:22.315Z,55.68
2023-01-04T11:30:48.711Z,55.59
2023-01-04T11:33:15.633Z,55.35
2023-01-04T11:35:43.069Z,55.50
2023-01-04T11:38:09.640Z,55.36
2023-01-04T11:40:36.097Z,55.64
2023-01-04T11:43:02.404Z,55.30
2023-01-04T11:45:28.899Z,55.48
2023-01-04T11:47:55.593Z,55.44
2023-01-04T11:50:21.960Z,55.66
2023-01-04T11:52:48.341Z,55.43
2023-01-04T11:55:14.634Z,55.32
2023-01-04T11:57:40.929Z,55.60
2023-01-04T12:00:07.389Z,55.36
2023-01-04T12:03:00.162Z,55.60
2023-01-04T12:05:28.070Z,55.85
2023-01-04T12:07:57.015Z,55.68
2023-01-04T12:10:23.531Z,55.60
2023-01-04T12:12:49.900Z,55.72
2023-01-04T12:15:16.394Z,55.85
2023-01-04T12:17:43.513Z,55.81
2023-01-04T12:20:16.426Z,55.75
2023-01-04T12:22:45.431Z,55.60
2023-01-04T12:25:11.787Z,55.57
2023-01-04T12:27:39.079Z,55.56
2023-01-04T12:30:05.354Z,55.87
2023-01-04T12:32:32.009Z,55.80
2023-01-04T12:34:58.911Z,55.95
2023-01-04T12:37:25.333Z,55.80
2023-01-04T12:39:51.703Z,55.73
2023-01-04T12:42:18.094Z,55.83
2023-01-04T12:44:44.809Z,55.60
2023-01-04T12:47:11.426Z,55.97
2023-01-04T12:49:38.144Z,56.11
2023-01-04T12:52:30.221Z,56.15
2023-01-04T12:54:52.477Z,56.15
2023-01-04T12:57:19.074Z,56.14
2023-01-04T12:59:45.895Z,55.88
2023-01-04T13:02:12.935Z,56.01
2023-01-04T13:04:39.927Z,55.84
2023-01-04T13:07:06.811Z,56.24
2023-01-04T13:09:33.757Z,56.51
2023-01-04T13:12:00.914Z,56.37
2023-01-04T13:14:27.316Z,56.61
2023-01-04T13:16:54.079Z,57.02
2023-01-04T13:19:20.523Z,57.62
2023-01-04T13:21:47.537Z,58.01
2023-01-04T13:24:13.968Z,57.79
2023-01-04T13:26:40.611Z,57.98
2023-01-04T13:29:07.273Z,58.07
2023-01-04T13:31:33.865Z,58.04
2023-01-04T13:34:01.000Z,57.83
2023-01-04T13:36:27.322Z,58.04
2023-01-04T13:38:53.819Z,58.11
2023-01-04T13:41:20.130Z,58.07
2023-01-04T13:43:46.548Z,58.66
2023-01-04T13:46:13.263Z,58.12
2023-01-04T13:48:39.653Z,58.46
2023-01-04T13:51:06.222Z,58.69
2023-01-04T13:53:33.147Z,58.98
2023-01-04T13:55:59.937Z,58.69
2023-01-04T13:58:26.609Z,58.76
2023-01-04T14:00:53.078Z,59.33
2023-01-04T14:03:19.550Z,59.29
2023-01-04T14:05:46.004Z,59.45
2023-01-04T14:08:12.855Z,59.16
2023-01-04T14:10:39.455Z,59.89
2023-01-04T14:13:06.943Z,59.61
2023-01-04T14:15:34.284Z,59.75
2023-01-04T14:18:01.276Z,59.48
2023-01-04T14:20:28.567Z,59.50
2023-01-04T14:22:54.994Z,59.80
2023-01-04T14:25:21.397Z,60.23
2023-01-04T14:27:47.930Z,59.85
2023-01-04T14:30:14.817Z,60.07
2023-01-04T14:32:41.911Z,60.19
2023-01-04T14:35:08.750Z,60.15
2023-01-04T14:37:37.625Z,60.23
2023-01-04T14:40:04.431Z,60.61
2023-01-04T14:42:31.479Z,60.15
2023-01-04T14:44:58.560Z,60.19
2023-01-04T14:47:25.291Z,60.08
2023-01-04T14:49:52.221Z,59.94
2023-01-04T14:52:18.696Z,59.88
2023-01-04T14:54:45.111Z,59.97
2023-01-04T14:57:11.778Z,60.06
2023-01-04T14:59:38.193Z,60.03
2023-01-04T15:02:05.209Z,59.90
2023-01-04T15:04:32.484Z,59.93
2023-01-04T15:06:59.430Z,59.82
2023-01-04T15:09:26.596Z,59.98
2023-01-04T15:11:53.505Z,59.80
2023-01-04T15:14:20.085Z,59.95
2023-01-04T15:16:47.182Z,59.93
2023-01-04T15:19:14.238Z,59.77
2023-01-04T15:21:41.825Z,59.76
2023-01-04T15:24:08.793Z,59.66
2023-01-04T15:26:35.999Z,59.96
2023-01-04T15:29:03.076Z,59.79
2023-01-04T15:31:36.647Z,59.65
2023-01-04T15:34:05.697Z,59.78
2023-01-04T15:36:32.622Z,59.32
2023-01-04T15:38:59.506Z,59.43
2023-01-04T15:41:26.650Z,59.45
2023-01-04T15:43:53.713Z,59.55
2023-01-04T15:46:20.952Z,59.14
2023-01-04T15:48:47.797Z,59.47
2023-01-04T15:51:14.637Z,59.58
2023-01-04T15:53:41.382Z,59.30
2023-01-04T15:56:07.753Z,59.01
2023-01-04T15:58:34.557Z,58.89
2023-01-04T16:01:06.456Z,59.16
2023-01-04T16:03:33.135Z,58.90
2023-01-04T16:05:59.839Z,59.38
2023-01-04T16:08:26.191Z,59.23
2023-01-04T16:10:53.055Z,57.61
2023-01-04T16:13:19.431Z,57.48
2023-01-04T16:15:45.895Z,58.94
2023-01-04T16:18:12.447Z,58.87
2023-01-04T16:20:38.770Z,58.98
2023-01-04T16:23:05.209Z,58.65
2023-01-04T16:25:32.248Z,58.54
2023-01-04T16:27:59.441Z,58.79
2023-01-04T16:30:29.734Z,58.42
2023-01-04T16:32:57.785Z,58.36
2023-01-04T16:35:24.339Z,58.35
2023-01-04T16:37:51.271Z,58.01
2023-01-04T16:40:17.644Z,58.12
2023-01-04T16:42:44.115Z,58.32
2023-01-04T16:45:10.817Z,58.27
2023-01-04T16:47:37.654Z,58.21
2023-01-04T16:50:04.144Z,58.24
2023-01-04T16:52:30.586Z,58.03
2023-01-04T16:54:57.381Z,58.15
2023-01-04T16:57:23.724Z,57.86
2023-01-04T16:59:50.085Z,58.17
2023-01-04T17:02:16.584Z,57.83
2023-01-04T17:04:43.469Z,57.91
2023-01-04T17:07:10.352Z,57.73
2023-01-04T17:09:37.227Z,57.81
2023-01-04T17:15:07.734Z,58.01
2023-01-04T17:17:35.322Z,57.61
2023-01-04T17:20:01.954Z,57.55
2023-01-04T17:22:34.233Z,57.81
2023-01-04T17:25:01.450Z,57.72
2023-01-04T17:27:28.705Z,57.58
2023-01-04T17:29:55.267Z,57.95
2023-01-04T17:32:21.763Z,57.98
2023-01-04T17:34:48.246Z,57.56
2023-01-04T17:37:14.638Z,57.99
2023-01-04T17:39:41.102Z,57.45
2023-01-04T17:42:07.902Z,57.81
2023-01-04T17:44:34.773Z,57.54
2023-01-04T17:47:01.086Z,57.89
2023-01-04T17:49:31.342Z,57.71
2023-01-04T17:51:58.288Z,57.51
2023-01-04T17:54:25.248Z,57.68
2023-01-04T17:56:51.923Z,57.57
2023-01-04T17:59:18.977Z,57.84
2023-01-04T18:01:45.499Z,57.45
2023-01-04T18:04:12.210Z,57.64
2023-01-04T18:06:39.290Z,57.32
2023-01-04T18:09:06.627Z,57.68
2023-01-04T18:11:33.759Z,57.42
2023-01-04T18:14:03.039Z,57.54
2023-01-04T18:16:32.740Z,57.68
2023-01-04T18:18:59.396Z,57.63
2023-01-04T18:21:28.575Z,57.50
2023-01-04T18:24:34.174Z,57.74
2023-01-04T18:27:19.298Z,57.41
2023-01-04T18:29:28.797Z,57.54
2023-01-04T18:31:55.177Z,57.52
2023-01-04T18:34:22.080Z,57.37
2023-01-04T18:36:48.504Z,57.69
2023-01-04T18:39:14.919Z,57.67
2023-01-04T18:41:41.967Z,57.60
2023-01-04T18:44:31.452Z,57.68
2023-01-04T18:46:54.981Z,57.43
2023-01-04T18:49:21.519Z,57.39
2023-01-04T18:51:47.860Z,57.62
2023-01-04T18:54:14.325Z,57.45
2023-01-04T18:56:41.509Z,57.37
2023-01-04T18:59:08.479Z,57.57
2023-01-04T19:01:35.591Z,57.60
2023-01-04T19:04:02.442Z,57.69
2023-01-04T19:06:28.813Z,57.72
2023-01-04T19:08:59.149Z,57.35
2023-01-04T19:11:27.913Z,57.70
2023-01-04T19:13:54.410Z,57.45
2023-01-04T19:16:21.625Z,57.54
2023-01-04T19:18:47.987Z,57.48
2023-01-04T19:21:14.732Z,57.50
2023-01-04T19:23:41.204Z,57.50
2023-01-04T19:26:07.622Z,57.35
2023-01-04T19:28:34.617Z,57.65
2023-01-04T19:31:01.123Z,57.77
2023-01-04T19:33:27.908Z,57.65
2023-01-04T19:35:54.669Z,57.48
2023-01-04T19:38:21.037Z,57.61
2023-01-04T19:40:47.865Z,57.58
2023-01-04T19:43:14.251Z,57.80
2023-01-04T19:45:41.343Z,57.66
2023-01-04T19:48:07.969Z,57.41
2023-01-04T19:50:34.563Z,57.58
2023-01-04T19:53:01.403Z,57.46
2023-01-04T19:55:28.027Z,57.67
2023-01-04T19:57:54.938Z,57.57
2023-01-04T20:00:22.177Z,57.80
2023-01-04T20:02:49.610Z,57.68
2023-01-04T20:05:16.674Z,57.75
2023-01-04T20:07:43.782Z,57.64
2023-01-04T20:10:14.211Z,57.78
2023-01-04T20:12:41.613Z,57.89
2023-01-04T20:15:08.725Z,57.59
2023-01-04T20:17:35.772Z,57.86
2023-01-04T20:20:02.882Z,57.90
2023-01-04T20:22:31.558Z,57.69
2023-01-04T20:24:57.982Z,58.06
2023-01-04T20:27:24.836Z,58.00
2023-01-04T20:29:51.948Z,58.00
2023-01-04T20:32:18.402Z,57.67
2023-01-04T20:34:45.204Z,58.15
2023-01-04T20:37:12.202Z,57.72
2023-01-04T20:39:38.617Z,58.04
2023-01-04T20:42:05.647Z,57.93
2023-01-04T20:44:32.654Z,57.83
2023-01-04T20:46:59.022Z,57.81
2023-01-04T20:49:25.507Z,58.07
2023-01-04T20:51:51.935Z,58.16
2023-01-04T20:54:18.480Z,57.86
2023-01-04T20:56:44.830Z,57.93
2023-01-04T20:59:12.076Z,57.91
2023-01-04T21:01:38.515Z,57.91
2023-01-04T21:04:05.243Z,58.00
2023-01-04T21:06:31.805Z,58.25
2023-01-04T21:08:59.603Z,57.96
2023-01-04T21:11:26.032Z,57.92
2023-01-04T21:13:52.706Z,57.90
2023-01-04T21:16:19.130Z,58.26
2023-01-04T21:18:45.683Z,58.30
2023-01-04T21:21:12.690Z,58.05
2023-01-04T21:23:39.608Z,57.98
2023-01-04T21:26:05.956Z,58.20
2023-01-04T21:28:32.311Z,58.27
2023-01-04T21:30:58.948Z,58.30
2023-01-04T21:33:25.672Z,58.32
2023-01-04T21:35:52.259Z,58.19
2023-01-04T21:38:19.031Z,58.03
2023-01-04T21:40:45.844Z,58.29
2023-01-04T21:43:12.566Z,58.34
2023-01-04T21:45:38.932Z,58.32
2023-01-04T21:48:05.476Z,58.46
2023-01-04T21:50:31.859Z,58.37
2023-01-04T21:52:58.683Z,58.39
2023-01-04T21:55:28.233Z,58.24
2023-01-04T21:57:59.019Z,58.56
2023-01-04T22:00:25.795Z,58.39
2023-01-04T22:02:52.676Z,58.37
2023-01-04T22:05:19.597Z,58.51
2023-01-04T22:07:46.097Z,58.14
2023-01-04T22:10:12.557Z,58.32
2023-01-04T22:12:39.063Z,58.27
2023-01-04T22:15:05.565Z,58.32
2023-01-04T22:17:32.011Z,58.32
2023-01-04T22:19:58.385Z,58.28
2023-01-04T22:22:24.819Z,58.30
2023-01-04T22:24:51.276Z,58.38
2023-01-04T22:27:18.045Z,58.37
2023-01-04T22:29:44.495Z,58.31
2023-01-04T22:32:10.912Z,58.72
2023-01-04T22:34:37.633Z,58.52
2023-01-04T22:37:04.074Z,58.67
2023-01-04T22:39:30.877Z,58.57
2023-01-04T22:41:57.339Z,58.77
2023-01-04T22:44:23.661Z,58.65
2023-01-04T22:46:50.578Z,58.71
2023-01-04T22:49:17.336Z,58.83
2023-01-04T22:51:43.640Z,58.46
2023-01-04T22:54:10.005Z,58.81
2023-01-04T22:56:36.829Z,58.67
2023-01-04T22:59:03.583Z,58.70
2023-01-04T23:01:30.005Z,58.88
2023-01-04T23:03:57.140Z,58.86
2023-01-04T23:06:23.729Z,58.57
2023-01-04T23:08:50.158Z,58.92
2023-01-04T23:11:17.123Z,58.71
2023-01-04T23:13:43.833Z,58.64
2023-01-04T23:16:11.011Z,58.84
2023-01-04T23:18:37.824Z,59.12
2023-01-04T23:21:04.227Z,58.86
2023-01-04T23:23:30.995Z,58.71
2023-01-04T23:25:57.512Z,58.78
2023-01-04T23:28:24.178Z,59.10
2023-01-04T23:30:50.734Z,58.71
2023-01-04T23:33:17.517Z,59.21
2023-01-04T23:35:43.930Z,58.96
2023-01-04T23:38:10.461Z,59.24
2023-01-04T23:40:37.605Z,58.99
2023-01-04T23:43:03.998Z,59.02
2023-01-04T23:45:30.346Z,59.16
2023-01-04T23:47:57.435Z,59.27
2023-01-04T23:50:24.337Z,59.25
2023-01-04T23:52:50.707Z,58.87
2023-01-04T23:55:17.163Z,59.34
2023-01-04T23:57:44.063Z,59.11
